createdAt,value
2022-09-28T00:01:29.575Z,100085.31
2022-09-28T00:03:59.977Z,100082.69
2022-09-28T00:06:32.147Z,100087.72
2022-09-28T00:09:02.022Z,100085.84
2022-09-28T00:11:31.468Z,100081.66
2022-09-28T00:14:03.793Z,100078.78
2022-09-28T00:16:36.726Z,100079.50
2022-09-28T00:19:21.437Z,100078.22
2022-09-28T00:21:51.823Z,100072.22
2022-09-28T00:24:25.249Z,100079.41
2022-09-28T00:27:03.029Z,100074.97
2022-09-28T00:29:34.026Z,100078.31
2022-09-28T00:32:06.510Z,100075.94
2022-09-28T00:34:36.969Z,100072.22
2022-09-28T00:37:11.206Z,100060.50
2022-09-28T00:39:46.520Z,100056.31
2022-09-28T00:42:18.665Z,100058.31
2022-09-28T00:44:51.538Z,100055.94
2022-09-28T00:47:45.633Z,100061.63
2022-09-28T00:50:24.545Z,100061.91
2022-09-28T00:52:59.885Z,100061.38
2022-09-28T00:55:34.515Z,100053.25
2022-09-28T00:58:06.947Z,100063.66
2022-09-28T01:00:37.646Z,100062.09
2022-09-28T01:03:09.827Z,100063.31
2022-09-28T01:05:41.340Z,100069.50
2022-09-28T01:08:17.119Z,100072.88
2022-09-28T01:10:45.981Z,100070.84
2022-09-28T01:13:15.878Z,100065.81
2022-09-28T01:15:51.319Z,100069.41
2022-09-28T01:18:29.620Z,100074.66
2022-09-28T01:21:07.629Z,100073.84
2022-09-28T01:24:09.888Z,100066.41
2022-09-28T01:26:58.751Z,100068.78
2022-09-28T01:29:44.084Z,100069.50
2022-09-28T01:32:35.096Z,100067.84
2022-09-28T01:35:09.791Z,100072.88
2022-09-28T01:37:47.455Z,100077.41
2022-09-28T01:40:18.894Z,100079.19
2022-09-28T01:42:52.587Z,100081.94
2022-09-28T01:45:26.817Z,100077.16
2022-09-28T01:48:02.032Z,100080.63
2022-09-28T01:50:36.898Z,100075.72
2022-09-28T01:53:12.936Z,100074.06
2022-09-28T01:55:47.349Z,100069.84
2022-09-28T01:58:24.732Z,100065.34
2022-09-28T02:01:00.861Z,100070.81
2022-09-28T02:03:39.102Z,100072.47
2022-09-28T02:06:13.655Z,100078.56
2022-09-28T02:08:49.453Z,100071.72
2022-09-28T02:11:20.378Z,100072.47
2022-09-28T02:13:56.281Z,100071.84
2022-09-28T02:16:32.595Z,100074.38
2022-09-28T02:19:01.986Z,100074.50
2022-09-28T02:21:35.820Z,100065.16
2022-09-28T02:24:13.109Z,100068.75
2022-09-28T02:26:45.926Z,100070.66
2022-09-28T02:29:16.746Z,100070.66
2022-09-28T02:31:45.760Z,100071.38
2022-09-28T02:34:14.623Z,100072.19
2022-09-28T02:36:45.144Z,100065.97
2022-09-28T02:39:17.179Z,100071.72
2022-09-28T02:41:56.352Z,100073.53
2022-09-28T02:44:59.107Z,100079.63
2022-09-28T02:47:46.895Z,100079.41
2022-09-28T02:50:26.676Z,100081.06
2022-09-28T02:53:22.981Z,100077.00
2022-09-28T02:56:12.812Z,100073.31
2022-09-28T02:58:55.863Z,100071.38
2022-09-28T03:01:34.654Z,100069.72
2022-09-28T03:04:11.028Z,100073.78
2022-09-28T03:06:47.976Z,100076.06
2022-09-28T03:09:23.040Z,100063.63
2022-09-28T03:11:58.751Z,100067.34
2022-09-28T03:14:28.570Z,100056.22
2022-09-28T03:16:59.646Z,100063.34
2022-09-28T03:19:32.044Z,100069.22
2022-09-28T03:22:00.928Z,100071.22
2022-09-28T03:24:29.173Z,100064.03
2022-09-28T03:26:57.679Z,100070.25
2022-09-28T03:29:27.157Z,100062.50
2022-09-28T03:31:56.222Z,100073.03
2022-09-28T03:34:26.134Z,100069.44
2022-09-28T03:36:56.151Z,100080.16
2022-09-28T03:39:24.584Z,100089.00
2022-09-28T03:41:53.658Z,100088.88
2022-09-28T03:44:22.412Z,100088.78
2022-09-28T03:46:53.055Z,100084.72
2022-09-28T03:49:21.800Z,100085.69
2022-09-28T03:51:52.349Z,100090.25
2022-09-28T03:54:23.670Z,100096.00
2022-09-28T03:56:52.728Z,100093.25
2022-09-28T03:59:22.788Z,100095.88
2022-09-28T04:01:52.657Z,100093.03
2022-09-28T04:04:21.191Z,100089.78
2022-09-28T04:06:57.687Z,100088.88
2022-09-28T04:09:27.683Z,100091.50
2022-09-28T04:12:03.682Z,100086.09
2022-09-28T04:14:33.240Z,100093.66
2022-09-28T04:17:02.015Z,100091.16
2022-09-28T04:19:30.276Z,100097.34
2022-09-28T04:22:01.736Z,100090.53
2022-09-28T04:24:30.552Z,100097.47
2022-09-28T04:27:18.968Z,100106.19
2022-09-28T04:29:46.653Z,100099.25
2022-09-28T04:32:17.696Z,100096.16
2022-09-28T04:35:48.596Z,100104.38
2022-09-28T04:39:36.566Z,100110.63
2022-09-28T04:52:22.944Z,100106.69
2022-09-28T04:54:51.508Z,100100.94
2022-09-28T04:57:20.392Z,100101.06
2022-09-28T04:59:50.424Z,100091.09
2022-09-28T05:02:19.188Z,100091.44
2022-09-28T05:04:48.427Z,100105.56
2022-09-28T05:07:18.915Z,100095.75
2022-09-28T05:09:47.525Z,100097.66
2022-09-28T05:12:17.354Z,100099.59
2022-09-28T05:14:46.269Z,100103.25
2022-09-28T05:17:17.751Z,100100.75
2022-09-28T05:19:52.866Z,100107.06
2022-09-28T05:22:21.677Z,100103.47
2022-09-28T05:24:51.283Z,100098.56
2022-09-28T05:27:27.796Z,100095.44
2022-09-28T05:30:57.724Z,100099.25
2022-09-28T05:33:27.753Z,100089.81
2022-09-28T05:36:10.638Z,100096.00
2022-09-28T05:39:36.957Z,100098.41
2022-09-28T05:42:05.625Z,100100.09
2022-09-28T05:44:59.008Z,100107.13
2022-09-28T05:47:59.755Z,100096.63
2022-09-28T05:51:25.899Z,100100.22
2022-09-28T05:54:06.094Z,100103.78
2022-09-28T05:57:05.356Z,100103.06
2022-09-28T06:00:14.387Z,100100.75
2022-09-28T06:02:42.905Z,100107.94
2022-09-28T06:05:11.937Z,100113.53
2022-09-28T06:07:40.992Z,100118.28
2022-09-28T06:10:14.479Z,100113.25
2022-09-28T06:12:43.126Z,100118.50
2022-09-28T06:15:12.364Z,100112.53
2022-09-28T06:17:41.455Z,100114.91
2022-09-28T06:20:12.892Z,100107.28
2022-09-28T06:22:42.566Z,100114.41
2022-09-28T06:26:19.481Z,100125.16
2022-09-28T06:28:49.428Z,100128.00
2022-09-28T06:31:23.852Z,100128.00
2022-09-28T06:34:06.506Z,100138.50
2022-09-28T06:36:35.928Z,100133.13
2022-09-28T06:39:04.650Z,100130.41
2022-09-28T06:41:35.328Z,100138.06
2022-09-28T06:44:05.418Z,100141.31
2022-09-28T06:46:36.029Z,100149.81
2022-09-28T06:49:06.453Z,100149.81
2022-09-28T06:51:34.877Z,100143.81
2022-09-28T06:54:03.438Z,100144.66
2022-09-28T06:56:33.021Z,100135.94
2022-09-28T06:59:01.721Z,100137.84
2022-09-28T07:01:31.999Z,100149.81
2022-09-28T07:04:02.126Z,100139.69
2022-09-28T07:06:31.871Z,100147.56
2022-09-28T07:09:24.653Z,100150.94
2022-09-28T07:12:00.901Z,100164.91
2022-09-28T07:14:46.855Z,100156.78
2022-09-28T07:17:18.125Z,100147.97
2022-09-28T07:19:46.627Z,100158.25
2022-09-28T07:22:18.859Z,100155.75
2022-09-28T07:24:49.752Z,100156.44
2022-09-28T07:27:18.652Z,100152.28
2022-09-28T07:29:47.055Z,100148.97
2022-09-28T07:32:18.132Z,100144.94
2022-09-28T07:35:09.300Z,100152.47
2022-09-28T07:37:38.676Z,100152.03
2022-09-28T07:40:28.275Z,100146.94
2022-09-28T07:42:56.790Z,100149.94
2022-09-28T07:45:25.247Z,100145.69
2022-09-28T07:47:57.881Z,100149.06
2022-09-28T07:50:26.550Z,100135.00
2022-09-28T07:53:02.040Z,100156.09
2022-09-28T07:55:31.603Z,100143.88
2022-09-28T07:58:01.909Z,100143.88
2022-09-28T08:00:34.397Z,100146.88
2022-09-28T08:03:06.262Z,100141.16
2022-09-28T08:05:36.183Z,100158.25
2022-09-28T08:08:04.970Z,100133.34
2022-09-28T08:10:33.344Z,100128.19
2022-09-28T08:13:06.396Z,100122.78
2022-09-28T08:15:38.422Z,100134.91
2022-09-28T08:18:12.287Z,100116.78
2022-09-28T08:20:58.422Z,100133.91
2022-09-28T08:23:26.961Z,100132.38
2022-09-28T08:25:56.295Z,100134.03
2022-09-28T08:28:25.820Z,100134.25
2022-09-28T08:30:54.744Z,100125.97
2022-09-28T08:33:24.828Z,100130.75
2022-09-28T08:35:58.596Z,100126.16
2022-09-28T08:38:28.111Z,100118.69
2022-09-28T08:41:16.907Z,100118.09
2022-09-28T08:44:24.670Z,100112.03
2022-09-28T08:47:00.312Z,100115.66
2022-09-28T08:49:45.439Z,100105.09
2022-09-28T08:52:19.082Z,100113.84
2022-09-28T08:55:02.058Z,100115.78
2022-09-28T08:57:38.344Z,100108.31
2022-09-28T09:00:11.820Z,100110.78
2022-09-28T09:02:42.809Z,100112.84
2022-09-28T09:05:16.174Z,100112.63
2022-09-28T09:08:10.736Z,100107.94
2022-09-28T09:10:53.901Z,100097.00
2022-09-28T09:13:41.336Z,100105.69
2022-09-28T09:16:20.254Z,100102.91
2022-09-28T09:18:55.980Z,100093.47
2022-09-28T09:21:43.679Z,100086.47
2022-09-28T09:24:27.600Z,100086.50
2022-09-28T09:27:20.119Z,100084.06
2022-09-28T09:30:02.717Z,100083.22
2022-09-28T09:32:47.395Z,100080.56
2022-09-28T09:35:31.604Z,100084.34
2022-09-28T09:38:37.867Z,100081.56
2022-09-28T09:41:17.878Z,100086.03
2022-09-28T09:44:18.731Z,100077.44
2022-09-28T09:46:54.343Z,100073.25
2022-09-28T09:49:26.523Z,100068.28
2022-09-28T09:52:01.715Z,100064.38
2022-09-28T09:54:39.175Z,100052.13
2022-09-28T09:57:14.674Z,100057.28
2022-09-28T09:59:45.839Z,100058.13
2022-09-28T10:02:24.368Z,100058.50
2022-09-28T10:04:58.737Z,100064.53
2022-09-28T10:07:43.098Z,100062.31
2022-09-28T10:10:24.101Z,100059.06
2022-09-28T10:12:54.186Z,100054.69
2022-09-28T10:15:28.002Z,100039.78
2022-09-28T10:18:01.029Z,100051.38
2022-09-28T10:20:34.722Z,100058.72
2022-09-28T10:23:06.583Z,100046.78
2022-09-28T10:25:39.798Z,100057.41
2022-09-28T10:28:09.077Z,100059.03
2022-09-28T10:30:42.306Z,100048.88
2022-09-28T10:33:30.932Z,100045.56
2022-09-28T10:36:01.450Z,100031.03
2022-09-28T10:38:31.990Z,100022.16
2022-09-28T10:41:10.749Z,100030.38
2022-09-28T10:43:51.293Z,100024.63
2022-09-28T10:46:24.611Z,100028.69
2022-09-28T10:48:59.739Z,100026.00
2022-09-28T10:51:42.823Z,100029.75
2022-09-28T10:54:17.954Z,100024.81
2022-09-28T10:56:49.401Z,100018.09
2022-09-28T10:59:42.734Z,100008.31
2022-09-28T11:02:24.205Z,100010.16
2022-09-28T11:04:57.806Z,100013.72
2022-09-28T11:07:31.083Z,100002.50
2022-09-28T11:10:01.222Z,100007.63
2022-09-28T11:12:37.178Z,99994.34
2022-09-28T11:15:08.447Z,99997.59
2022-09-28T11:17:40.754Z,99994.19
2022-09-28T11:20:33.186Z,99991.03
2022-09-28T11:23:21.549Z,99983.59
2022-09-28T11:26:00.668Z,99982.56
2022-09-28T11:28:36.159Z,99988.84
2022-09-28T11:31:08.127Z,99992.41
2022-09-28T11:33:39.058Z,99985.03
2022-09-28T11:36:22.981Z,99977.13
2022-09-28T11:39:01.563Z,99983.31
2022-09-28T11:41:50.626Z,99975.66
2022-09-28T11:44:37.481Z,99971.84
2022-09-28T11:47:29.945Z,99968.00
2022-09-28T11:50:06.835Z,99968.41
2022-09-28T11:52:42.999Z,99963.03
2022-09-28T11:55:20.199Z,99960.03
2022-09-28T11:57:56.573Z,99957.78
2022-09-28T12:00:26.881Z,99955.84
2022-09-28T12:03:02.450Z,99960.31
2022-09-28T12:05:35.871Z,99962.03
2022-09-28T12:08:14.044Z,99965.59
2022-09-28T12:10:51.704Z,99968.78
2022-09-28T12:13:24.246Z,99965.44
2022-09-28T12:18:54.708Z,99961.38
2022-09-28T12:21:37.557Z,99972.34
2022-09-28T12:24:17.399Z,99968.84
2022-09-28T12:26:54.746Z,99975.41
2022-09-28T12:29:30.100Z,99989.31
2022-09-28T12:32:09.794Z,100008.69
2022-09-28T12:35:09.258Z,100021.38
2022-09-28T12:37:55.264Z,100021.25
2022-09-28T12:41:01.950Z,100026.50
2022-09-28T12:44:02.379Z,100026.91
2022-09-28T12:46:51.575Z,100023.59
2022-09-28T12:52:34.424Z,100032.19
2022-09-28T12:55:17.369Z,100037.59
2022-09-28T12:58:18.589Z,100040.03
2022-09-28T13:00:57.777Z,100028.31
2022-09-28T13:04:02.886Z,100039.59
2022-09-28T13:06:41.180Z,100033.78
2022-09-28T13:09:23.502Z,100034.06
2022-09-28T13:12:05.959Z,100035.09
2022-09-28T13:15:25.133Z,100028.59
2022-09-28T13:18:02.420Z,100017.69
2022-09-28T13:20:45.519Z,100005.81
2022-09-28T13:23:22.990Z,99995.84
2022-09-28T13:25:58.607Z,99996.78
2022-09-28T13:28:29.920Z,100002.13
2022-09-28T13:31:02.766Z,100001.53
2022-09-28T13:33:37.558Z,100002.84
2022-09-28T13:36:40.475Z,99997.09
2022-09-28T13:39:40.334Z,99990.41
2022-09-28T13:42:11.727Z,99989.81
2022-09-28T13:45:00.579Z,99974.22
2022-09-28T13:47:54.059Z,99966.81
2022-09-28T13:50:35.322Z,99949.69
2022-09-28T13:53:17.201Z,99984.56
2022-09-28T13:59:27.392Z,100029.84
2022-09-28T14:02:07.123Z,100039.44
2022-09-28T14:04:56.220Z,100035.97
2022-09-28T14:07:59.831Z,100030.84
2022-09-28T14:10:50.415Z,100020.09
2022-09-28T14:13:55.374Z,100023.16
2022-09-28T14:16:28.368Z,100014.13
2022-09-28T14:19:04.317Z,100023.31
2022-09-28T14:21:52.117Z,100012.78
2022-09-28T14:24:35.423Z,99986.25
2022-09-28T14:27:32.602Z,99930.91
2022-09-28T14:30:21.230Z,99919.25
2022-09-28T14:32:55.507Z,99908.16
2022-09-28T14:35:35.312Z,99899.53
2022-09-28T14:38:31.705Z,99901.97
2022-09-28T14:41:10.728Z,99907.25
2022-09-28T14:43:55.794Z,99901.47
2022-09-28T14:46:38.983Z,99900.69
2022-09-28T14:49:43.368Z,99901.63
2022-09-28T14:52:20.372Z,99894.50
2022-09-28T14:54:58.933Z,99897.44
2022-09-28T14:57:32.780Z,99910.81
2022-09-28T15:00:03.034Z,99901.25
2022-09-28T15:02:34.798Z,99893.00
2022-09-28T15:05:16.532Z,99900.25
2022-09-28T15:07:52.497Z,99908.81
2022-09-28T15:10:33.185Z,99915.38
2022-09-28T15:13:04.293Z,99919.78
2022-09-28T15:15:37.353Z,99923.03
2022-09-28T15:18:47.307Z,99924.00
2022-09-28T15:21:16.712Z,99908.19
2022-09-28T15:23:55.185Z,99890.78
2022-09-28T15:26:34.646Z,99884.59
2022-09-28T15:29:04.546Z,99892.41
2022-09-28T15:31:37.499Z,99880.03
2022-09-28T15:34:23.142Z,99886.47
2022-09-28T15:36:51.807Z,99907.75
2022-09-28T15:39:29.707Z,99911.56
2022-09-28T15:42:00.286Z,99923.94
2022-09-28T15:44:37.689Z,99904.22
2022-09-28T15:47:18.855Z,99891.41
2022-09-28T15:49:58.870Z,99892.84
2022-09-28T15:52:34.470Z,99884.28
2022-09-28T15:55:06.734Z,99898.50
2022-09-28T15:57:40.760Z,99902.59
2022-09-28T16:00:27.040Z,99900.38
2022-09-28T16:03:22.414Z,99910.00
2022-09-28T16:05:53.451Z,99909.88
2022-09-28T16:08:26.603Z,99907.38
2022-09-28T16:11:14.085Z,99904.47
2022-09-28T16:13:57.648Z,99884.81
2022-09-28T16:16:31.699Z,99886.06
2022-09-28T16:19:02.718Z,99881.25
2022-09-28T16:21:56.385Z,99882.13
2022-09-28T16:24:36.274Z,99883.00
2022-09-28T16:27:27.213Z,99888.84
2022-09-28T16:30:20.512Z,99882.06
2022-09-28T16:33:01.938Z,99885.13
2022-09-28T16:35:33.734Z,99888.53
2022-09-28T16:38:05.967Z,99887.88
2022-09-28T16:40:43.579Z,99908.88
2022-09-28T16:43:27.282Z,99899.53
2022-09-28T16:45:57.814Z,99902.81
2022-09-28T16:48:28.545Z,99897.38
2022-09-28T16:50:58.128Z,99901.44
2022-09-28T16:53:45.861Z,99913.69
2022-09-28T16:56:15.341Z,99918.03
2022-09-28T16:58:49.588Z,99915.84
2022-09-28T17:01:21.235Z,99923.81
2022-09-28T17:03:50.557Z,99932.56
2022-09-28T17:06:21.509Z,99943.13
2022-09-28T17:08:59.409Z,99941.28
2022-09-28T17:11:30.278Z,99951.34
2022-09-28T17:14:03.341Z,99932.81
2022-09-28T17:17:06.079Z,99939.97
2022-09-28T17:19:29.149Z,99950.56
2022-09-28T17:21:57.753Z,99946.31
2022-09-28T17:24:27.471Z,99947.63
2022-09-28T17:26:57.567Z,99950.41
2022-09-28T17:29:27.903Z,99952.41
2022-09-28T17:31:58.318Z,99949.69
2022-09-28T17:34:26.820Z,99954.91
2022-09-28T17:36:56.371Z,99957.91
2022-09-28T17:39:25.272Z,99959.91
2022-09-28T17:41:53.659Z,99965.50
2022-09-28T17:44:22.666Z,99962.72
2022-09-28T17:46:54.475Z,99960.81
2022-09-28T17:49:24.160Z,99959.66
2022-09-28T17:51:53.431Z,99971.22
2022-09-28T17:54:23.946Z,99970.16
2022-09-28T17:56:59.500Z,99966.31
2022-09-28T17:59:29.035Z,99967.59
2022-09-28T18:02:02.529Z,99979.75
2022-09-28T18:04:50.843Z,99974.88
2022-09-28T18:07:20.394Z,99980.50
2022-09-28T18:09:57.324Z,99983.06
2022-09-28T18:12:26.164Z,99984.75
2022-09-28T18:14:54.865Z,99986.84
2022-09-28T18:17:26.242Z,99988.25
2022-09-28T18:19:56.778Z,99990.63
2022-09-28T18:22:33.048Z,99995.53
2022-09-28T18:25:04.073Z,99993.31
2022-09-28T18:27:34.729Z,100000.59
2022-09-28T18:30:04.346Z,99999.91
2022-09-28T18:32:38.184Z,100003.91
2022-09-28T18:35:12.241Z,100009.91
2022-09-28T18:37:43.348Z,99997.09
2022-09-28T18:40:16.059Z,100005.03
2022-09-28T18:42:56.247Z,100004.53
2022-09-28T18:45:27.791Z,100009.66
2022-09-28T18:48:00.332Z,100003.66
2022-09-28T18:50:42.275Z,100009.38
2022-09-28T18:53:40.116Z,100005.78
2022-09-28T19:09:47.364Z,100024.84
2022-09-28T19:16:26.477Z,100032.63
2022-09-28T19:27:02.298Z,100058.19
2022-09-28T19:29:31.419Z,100063.06
2022-09-28T19:32:00.416Z,100058.88
2022-09-28T19:34:30.360Z,100063.63
2022-09-28T19:37:06.854Z,100067.63
2022-09-28T19:39:45.722Z,100072.22
2022-09-28T19:42:14.197Z,100077.34
2022-09-28T19:44:44.383Z,100079.16
2022-09-28T19:47:14.950Z,100075.94
2022-09-28T19:49:45.223Z,100080.09
2022-09-28T19:52:17.301Z,100084.81
2022-09-28T19:54:54.754Z,100075.91
2022-09-28T19:57:26.347Z,100083.41
2022-09-28T20:00:02.441Z,100088.25
2022-09-28T20:02:32.438Z,100092.53
2022-09-28T20:05:02.900Z,100092.91
2022-09-28T20:07:33.230Z,100094.28
2022-09-28T20:10:12.416Z,100094.53
2022-09-28T20:12:48.575Z,100093.81
2022-09-28T20:16:05.758Z,100098.94
2022-09-28T20:19:03.488Z,100098.66
2022-09-28T20:21:42.128Z,100097.09
2022-09-28T20:24:31.776Z,100101.16
2022-09-28T20:27:13.058Z,100110.19
2022-09-28T20:29:47.243Z,100108.63
2022-09-28T20:32:16.575Z,100114.28
2022-09-28T20:34:56.872Z,100120.69
2022-09-28T20:37:38.831Z,100125.38
2022-09-28T20:40:20.437Z,100123.56
2022-09-28T20:52:43.911Z,100124.34
2022-09-28T20:55:27.017Z,100132.78
2022-09-28T21:26:42.335Z,100146.19
2022-09-28T21:29:37.630Z,100153.13
2022-09-28T21:34:09.949Z,100148.97
2022-09-28T21:36:54.296Z,100147.28
2022-09-28T21:39:32.628Z,100163.13
2022-09-28T21:42:10.846Z,100166.59
2022-09-28T21:44:43.294Z,100168.38
2022-09-28T21:47:28.462Z,100168.38
2022-09-28T21:50:05.303Z,100158.78
2022-09-28T21:53:05.349Z,100168.63
2022-09-28T21:56:04.809Z,100161.91
2022-09-28T22:02:05.979Z,100177.88
2022-09-28T22:04:40.869Z,100176.91
2022-09-28T22:07:15.732Z,100181.06
2022-09-28T22:10:02.659Z,100178.19
2022-09-28T22:13:09.131Z,100184.56
2022-09-28T22:15:41.103Z,100183.00
2022-09-28T22:18:11.895Z,100183.25
2022-09-28T22:20:40.673Z,100180.88
2022-09-28T22:23:15.910Z,100187.22
2022-09-28T22:25:44.393Z,100196.31
2022-09-28T22:28:14.012Z,100192.72
2022-09-28T22:30:46.935Z,100203.38
2022-09-28T22:33:27.604Z,100205.78
2022-09-28T22:35:56.597Z,100201.34
2022-09-28T22:38:26.953Z,100199.94
2022-09-28T22:41:01.840Z,100201.84
2022-09-28T22:43:49.744Z,100194.78
2022-09-28T22:46:22.195Z,100194.53
2022-09-28T22:48:56.074Z,100200.66
2022-09-28T22:51:29.118Z,100197.28
2022-09-28T22:54:01.356Z,100204.34
2022-09-28T22:56:35.955Z,100196.69
2022-09-28T22:59:06.401Z,100202.22
2022-09-28T23:01:36.361Z,100206.38
2022-09-28T23:04:10.570Z,100211.31
2022-09-28T23:06:46.957Z,100201.72
2022-09-28T23:09:16.685Z,100206.63
2022-09-28T23:11:45.618Z,100201.94
2022-09-28T23:14:15.958Z,100210.19
2022-09-28T23:16:44.527Z,100211.41
2022-09-28T23:19:15.812Z,100225.41
2022-09-28T23:21:44.286Z,100218.56
2022-09-28T23:24:15.940Z,100223.13
2022-09-28T23:26:45.543Z,100225.84
2022-09-28T23:29:16.197Z,100231.25
2022-09-28T23:31:49.081Z,100231.25
2022-09-28T23:34:19.200Z,100238.53
2022-09-28T23:37:05.529Z,100228.25
2022-09-28T23:39:36.123Z,100228.34
2022-09-28T23:42:10.943Z,100233.75
2022-09-28T23:44:40.450Z,100226.06
2022-09-28T23:47:11.014Z,100225.56
2022-09-28T23:49:41.089Z,100232.38
2022-09-28T23:52:11.372Z,100235.94
2022-09-28T23:54:43.692Z,100230.56
2022-09-28T23:57:19.346Z,100228.69
2022-09-28T23:59:48.130Z,100234.78
